createdAt,value
2022-09-03T00:00:18.910Z,5.15
2022-09-03T00:03:05.547Z,5.50
2022-09-03T00:05:45.794Z,5.30
2022-09-03T00:08:28.225Z,5.60
2022-09-03T00:11:03.944Z,5.38
2022-09-03T00:13:38.244Z,4.60
2022-09-03T00:16:10.977Z,5.70
2022-09-03T00:18:44.756Z,5.55
2022-09-03T00:21:46.231Z,5.80
2022-09-03T00:24:16.761Z,5.90
2022-09-03T00:26:50.224Z,5.72
2022-09-03T00:29:21.205Z,5.65
2022-09-03T00:31:53.402Z,6.13
2022-09-03T00:34:31.283Z,5.82
2022-09-03T00:36:58.797Z,6.10
2022-09-03T00:39:27.573Z,6.07
2022-09-03T00:42:07.962Z,6.40
2022-09-03T00:44:48.268Z,5.90
2022-09-03T00:47:24.782Z,6.60
2022-09-03T00:50:01.257Z,6.05
2022-09-03T00:52:45.779Z,5.65
2022-09-03T00:55:23.456Z,6.40
2022-09-03T00:58:08.574Z,6.20
2022-09-03T01:00:42.659Z,6.40
2022-09-03T01:03:38.885Z,5.75
2022-09-03T01:06:11.953Z,6.13
2022-09-03T01:09:14.732Z,6.40
2022-09-03T01:11:55.319Z,6.05
2022-09-03T01:15:01.127Z,5.78
2022-09-03T01:17:44.238Z,5.55
2022-09-03T01:20:22.612Z,5.55
2022-09-03T01:23:24.874Z,5.72
2022-09-03T01:26:22.846Z,5.50
2022-09-03T01:29:28.720Z,6.10
2022-09-03T01:32:08.877Z,6.40
2022-09-03T01:34:50.303Z,6.15
2022-09-03T01:37:35.492Z,6.47
2022-09-03T01:40:29.917Z,6.40
2022-09-03T01:43:20.639Z,7.05
2022-09-03T01:46:17.797Z,6.70
2022-09-03T01:49:05.705Z,6.45
2022-09-03T01:51:33.108Z,6.22
2022-09-03T01:56:48.062Z,6.78
2022-09-03T01:59:28.226Z,6.88
2022-09-03T02:02:09.016Z,6.78
2022-09-03T02:04:36.558Z,6.90
2022-09-03T02:07:03.931Z,6.53
2022-09-03T02:12:15.838Z,6.85
2022-09-03T02:14:43.772Z,6.95
2022-09-03T02:17:11.365Z,7.28
2022-09-03T02:19:39.093Z,7.30
2022-09-03T02:22:06.509Z,8.27
2022-09-03T02:24:33.507Z,7.68
2022-09-03T02:27:00.671Z,7.93
2022-09-03T02:29:27.554Z,8.23
2022-09-03T02:34:21.328Z,8.57
2022-09-03T02:36:48.119Z,8.40
2022-09-03T02:39:16.639Z,9.25
2022-09-03T02:41:43.939Z,8.68
2022-09-03T02:44:26.182Z,8.27
2022-09-03T02:47:02.600Z,9.10
2022-09-03T02:49:30.193Z,8.95
2022-09-03T02:52:15.854Z,8.50
2022-09-03T02:54:45.027Z,9.38
2022-09-03T02:57:15.246Z,9.80
2022-09-03T02:59:44.522Z,9.32
2022-09-03T03:02:13.386Z,9.23
2022-09-03T03:04:40.545Z,8.88
2022-09-03T03:07:07.947Z,9.50
2022-09-03T03:12:01.289Z,10.15
2022-09-03T03:14:28.059Z,9.93
2022-09-03T03:16:54.828Z,9.32
2022-09-03T03:19:21.611Z,9.50
2022-09-03T03:21:48.306Z,8.35
2022-09-03T03:24:15.053Z,8.80
2022-09-03T03:26:41.812Z,8.98
2022-09-03T03:29:14.021Z,8.73
2022-09-03T03:31:40.929Z,7.78
2022-09-03T03:34:07.589Z,7.68
2022-09-03T03:36:35.596Z,8.25
2022-09-03T03:39:03.063Z,8.10
2022-09-03T03:41:34.982Z,7.07
2022-09-03T03:44:07.333Z,7.40
2022-09-03T03:46:36.698Z,6.93
2022-09-03T03:49:04.787Z,6.82
2022-09-03T03:51:32.603Z,6.95
2022-09-03T03:54:04.345Z,7.30
2022-09-03T03:56:31.757Z,7.43
2022-09-03T03:58:59.562Z,7.60
2022-09-03T04:01:28.066Z,7.30
2022-09-03T04:03:56.711Z,7.80
2022-09-03T04:06:23.899Z,7.07
2022-09-03T04:08:50.775Z,6.78
2022-09-03T04:11:20.005Z,7.93
2022-09-03T04:13:47.830Z,7.40
2022-09-03T04:16:18.169Z,7.70
2022-09-03T04:18:45.482Z,7.90
2022-09-03T04:21:14.969Z,8.43
2022-09-03T04:23:44.528Z,8.38
2022-09-03T04:26:13.287Z,7.65
2022-09-03T04:28:41.885Z,8.75
2022-09-03T04:31:11.257Z,7.80
2022-09-03T04:33:38.796Z,7.85
2022-09-03T04:36:08.430Z,7.38
2022-09-03T04:38:37.626Z,8.18
2022-09-03T04:41:05.737Z,7.63
2022-09-03T04:43:32.754Z,7.70
2022-09-03T04:46:01.608Z,7.30
2022-09-03T04:48:29.671Z,7.43
2022-09-03T04:51:05.288Z,7.68
2022-09-03T04:53:37.186Z,8.30
2022-09-03T04:56:12.509Z,8.13
2022-09-03T04:58:39.246Z,7.32
2022-09-03T05:01:11.608Z,8.02
2022-09-03T05:03:38.619Z,7.35
2022-09-03T05:06:06.338Z,7.53
2022-09-03T05:08:37.190Z,7.18
2022-09-03T05:11:05.428Z,6.85
2022-09-03T05:13:33.690Z,7.05
2022-09-03T05:16:06.340Z,7.13
2022-09-03T05:18:35.738Z,6.97
2022-09-03T05:21:08.356Z,7.30
2022-09-03T05:23:40.136Z,6.97
2022-09-03T05:26:11.028Z,7.95
2022-09-03T05:28:40.384Z,7.63
2022-09-03T05:31:08.674Z,7.40
2022-09-03T05:33:40.595Z,8.00
2022-09-03T05:36:10.325Z,7.72
2022-09-03T05:38:37.245Z,7.13
2022-09-03T05:41:07.105Z,7.30
2022-09-03T05:43:35.044Z,6.95
2022-09-03T05:46:04.253Z,6.68
2022-09-03T05:48:31.643Z,8.50
2022-09-03T05:53:29.522Z,6.80
2022-09-03T05:55:58.165Z,6.45
2022-09-03T05:58:25.401Z,5.90
2022-09-03T06:00:52.476Z,6.60
2022-09-03T06:03:19.833Z,6.72
2022-09-03T06:05:55.736Z,7.55
2022-09-03T06:08:22.469Z,7.68
2022-09-03T06:10:49.254Z,8.20
2022-09-03T06:13:16.022Z,7.18
2022-09-03T06:15:42.734Z,7.57
2022-09-03T06:19:04.618Z,7.03
2022-09-03T06:21:31.281Z,7.97
2022-09-03T06:23:59.736Z,7.15
2022-09-03T06:26:30.486Z,7.55
2022-09-03T06:28:57.950Z,7.60
2022-09-03T06:31:25.689Z,7.80
2022-09-03T06:33:54.646Z,8.07
2022-09-03T06:36:23.724Z,9.25
2022-09-03T06:38:55.243Z,8.70
2022-09-03T06:41:27.474Z,9.55
2022-09-03T06:43:59.061Z,10.38
2022-09-03T06:46:25.742Z,9.70
2022-09-03T06:48:53.312Z,9.70
2022-09-03T06:51:26.037Z,8.32
2022-09-03T06:53:56.192Z,9.63
2022-09-03T06:56:27.206Z,8.70
2022-09-03T06:58:58.495Z,6.93
2022-09-03T07:01:31.749Z,7.18
2022-09-03T07:04:05.568Z,5.45
2022-09-03T07:06:37.278Z,6.30
2022-09-03T07:09:05.059Z,5.40
2022-09-03T07:11:33.378Z,5.97
2022-09-03T07:14:00.273Z,5.78
2022-09-03T07:16:30.051Z,5.47
2022-09-03T07:18:57.242Z,5.28
2022-09-03T07:21:26.436Z,6.55
2022-09-03T07:23:54.744Z,6.18
2022-09-03T07:26:30.477Z,5.53
2022-09-03T07:28:57.878Z,6.63
2022-09-03T07:31:34.481Z,5.88
2022-09-03T07:34:10.016Z,6.53
2022-09-03T07:36:41.558Z,5.43
2022-09-03T07:39:08.948Z,5.70
2022-09-03T07:41:35.717Z,5.88
2022-09-03T07:44:05.497Z,5.10
2022-09-03T07:46:35.126Z,5.72
2022-09-03T07:49:08.155Z,4.88
2022-09-03T07:51:37.283Z,5.50
2022-09-03T07:54:10.741Z,5.25
2022-09-03T07:56:38.952Z,5.93
2022-09-03T07:59:06.298Z,5.82
2022-09-03T08:01:34.723Z,5.63
2022-09-03T08:04:02.798Z,5.68
2022-09-03T08:06:30.637Z,5.28
2022-09-03T08:09:05.373Z,5.20
2022-09-03T08:11:36.163Z,5.22
2022-09-03T08:14:08.600Z,5.35
2022-09-03T08:16:38.035Z,5.18
2022-09-03T08:19:05.261Z,4.75
2022-09-03T08:21:32.206Z,5.05
2022-09-03T08:24:05.623Z,5.47
2022-09-03T08:26:35.490Z,4.45
2022-09-03T08:29:02.649Z,4.13
2022-09-03T08:33:59.206Z,4.20
2022-09-03T08:36:30.057Z,4.68
2022-09-03T08:39:03.981Z,4.43
2022-09-03T08:41:34.132Z,3.90
2022-09-03T08:44:26.234Z,3.78
2022-09-03T08:47:02.422Z,4.45
2022-09-03T08:49:51.740Z,3.78
2022-09-03T08:52:52.795Z,3.67
2022-09-03T08:55:27.106Z,4.28
2022-09-03T08:58:18.573Z,3.90
2022-09-03T09:01:01.581Z,3.35
2022-09-03T09:03:46.214Z,3.17
2022-09-03T09:06:22.945Z,3.67
2022-09-03T09:09:17.719Z,3.83
2022-09-03T09:12:45.851Z,3.28
2022-09-03T09:15:43.243Z,3.50
2022-09-03T09:18:24.858Z,3.85
2022-09-03T09:20:59.294Z,3.30
2022-09-03T09:23:40.905Z,3.80
2022-09-03T09:26:13.624Z,4.00
2022-09-03T09:28:40.682Z,3.67
2022-09-03T09:31:12.567Z,3.17
2022-09-03T09:33:39.541Z,3.60
2022-09-03T09:36:09.774Z,3.35
2022-09-03T09:38:38.990Z,3.92
2022-09-03T09:41:14.046Z,3.97
2022-09-03T09:43:41.043Z,3.13
2022-09-03T09:46:13.899Z,3.80
2022-09-03T09:48:55.122Z,3.65
2022-09-03T09:51:33.470Z,3.65
2022-09-03T09:54:18.854Z,2.88
2022-09-03T09:56:46.949Z,3.15
2022-09-03T09:59:15.266Z,3.40
2022-09-03T10:01:46.910Z,3.55
2022-09-03T10:04:32.982Z,4.15
2022-09-03T10:07:22.853Z,3.50
2022-09-03T10:10:20.958Z,3.25
2022-09-03T10:13:03.204Z,3.60
2022-09-03T10:15:39.178Z,3.72
2022-09-03T10:18:29.031Z,4.05
2022-09-03T10:21:06.172Z,3.65
2022-09-03T10:23:48.790Z,4.00
2022-09-03T10:26:19.750Z,3.47
2022-09-03T10:28:56.849Z,3.33
2022-09-03T10:31:30.905Z,3.20
2022-09-03T10:34:10.346Z,3.58
2022-09-03T10:36:59.683Z,3.42
2022-09-03T10:39:53.037Z,3.28
2022-09-03T10:42:39.792Z,3.17
2022-09-03T10:45:12.971Z,4.30
2022-09-03T10:48:11.486Z,3.88
2022-09-03T10:50:59.333Z,3.90
2022-09-03T10:54:00.386Z,3.10
2022-09-03T10:56:31.106Z,4.90
2022-09-03T10:59:36.774Z,3.17
2022-09-03T11:02:41.396Z,3.00
2022-09-03T11:05:18.514Z,3.58
2022-09-03T11:07:58.486Z,3.53
2022-09-03T11:10:31.257Z,3.28
2022-09-03T11:13:04.306Z,2.92
2022-09-03T11:16:11.939Z,3.70
2022-09-03T11:18:47.000Z,3.10
2022-09-03T11:21:18.599Z,2.95
2022-09-03T11:23:48.313Z,2.90
2022-09-03T11:26:24.029Z,2.90
2022-09-03T11:29:12.719Z,3.10
2022-09-03T11:31:49.786Z,3.15
2022-09-03T11:34:23.548Z,3.25
2022-09-03T11:37:07.468Z,3.20
2022-09-03T11:39:40.044Z,3.30
2022-09-03T11:42:24.406Z,3.20
2022-09-03T11:44:52.116Z,3.30
2022-09-03T11:47:24.691Z,3.40
2022-09-03T11:49:53.538Z,3.33
2022-09-03T11:52:32.492Z,3.30
2022-09-03T11:54:59.207Z,3.70
2022-09-03T11:57:29.616Z,3.35
2022-09-03T12:00:10.914Z,3.45
2022-09-03T12:02:45.137Z,3.40
2022-09-03T12:05:41.676Z,3.13
2022-09-03T12:08:26.577Z,3.50
2022-09-03T12:11:28.355Z,3.15
2022-09-03T12:17:33.067Z,2.83
2022-09-03T12:20:00.138Z,3.30
2022-09-03T12:24:56.188Z,3.67
2022-09-03T12:27:26.096Z,3.58
2022-09-03T12:29:59.860Z,3.90
2022-09-03T12:32:32.130Z,3.70
2022-09-03T12:35:09.782Z,3.72
2022-09-03T12:43:36.640Z,3.78
2022-09-03T12:48:40.510Z,3.58
2022-09-03T12:53:57.259Z,4.07
2022-09-03T12:56:25.884Z,3.70
2022-09-03T12:59:05.988Z,3.67
2022-09-03T13:01:44.894Z,3.90
2022-09-03T13:04:18.385Z,3.17
2022-09-03T13:06:56.454Z,4.00
2022-09-03T13:09:26.316Z,3.47
2022-09-03T13:11:55.336Z,3.38
2022-09-03T13:14:22.372Z,3.47
2022-09-03T13:19:44.346Z,2.70
2022-09-03T13:22:33.965Z,4.00
2022-09-03T13:25:20.720Z,3.33
2022-09-03T13:28:17.658Z,3.40
2022-09-03T13:31:26.902Z,3.63
2022-09-03T13:34:20.825Z,3.28
2022-09-03T13:36:56.327Z,3.30
2022-09-03T13:39:52.543Z,3.70
2022-09-03T13:42:52.426Z,3.72
2022-09-03T13:45:29.647Z,3.67
2022-09-03T13:48:28.464Z,3.30
2022-09-03T13:51:19.305Z,4.18
2022-09-03T13:53:53.979Z,3.53
2022-09-03T13:56:46.464Z,3.80
2022-09-03T13:59:40.424Z,3.97
2022-09-03T14:02:33.196Z,4.00
2022-09-03T14:05:24.985Z,4.05
2022-09-03T14:07:57.857Z,4.03
2022-09-03T14:11:03.491Z,4.32
2022-09-03T14:13:50.176Z,3.97
2022-09-03T14:16:39.410Z,3.97
2022-09-03T14:20:04.212Z,3.55
2022-09-03T14:22:42.366Z,3.45
2022-09-03T14:25:17.353Z,3.50
2022-09-03T14:27:44.310Z,3.63
2022-09-03T14:30:16.716Z,3.60
2022-09-03T14:32:49.433Z,4.00
2022-09-03T14:35:34.890Z,3.72
2022-09-03T14:38:31.644Z,4.00
2022-09-03T14:41:34.432Z,3.63
2022-09-03T14:44:27.852Z,3.53
2022-09-03T14:47:07.149Z,4.28
2022-09-03T14:49:33.775Z,3.80
2022-09-03T14:52:24.385Z,3.55
2022-09-03T14:55:13.241Z,3.65
2022-09-03T14:58:12.849Z,3.90
2022-09-03T15:01:13.806Z,4.05
2022-09-03T15:03:49.350Z,3.50
2022-09-03T15:06:53.724Z,4.18
2022-09-03T15:09:28.271Z,4.03
2022-09-03T15:12:01.084Z,4.60
2022-09-03T15:14:34.871Z,4.40
2022-09-03T15:17:28.312Z,4.07
2022-09-03T15:20:11.000Z,3.95
2022-09-03T15:23:11.809Z,4.35
2022-09-03T15:26:06.222Z,2.67
2022-09-03T15:28:41.850Z,2.30
2022-09-03T15:31:32.038Z,1.20
2022-09-03T15:34:01.654Z,0.70
2022-09-03T15:36:37.361Z,0.40
2022-09-03T15:39:09.273Z,0.35
2022-09-03T15:41:57.017Z,0.30
2022-09-03T15:44:26.548Z,1.33
2022-09-03T15:47:00.563Z,0.32
2022-09-03T15:49:54.335Z,0.45
2022-09-03T15:52:36.874Z,0.57
2022-09-03T15:55:38.434Z,0.65
2022-09-03T15:58:28.824Z,0.50
2022-09-03T16:01:03.523Z,0.50
2022-09-03T16:03:44.232Z,0.68
2022-09-03T16:06:28.144Z,0.60
2022-09-03T16:09:05.738Z,0.82
2022-09-03T16:11:54.118Z,0.88
2022-09-03T16:14:23.274Z,0.80
2022-09-03T16:17:21.787Z,1.38
2022-09-03T16:20:01.909Z,1.23
2022-09-03T16:22:30.949Z,1.20
2022-09-03T16:25:31.902Z,1.10
2022-09-03T16:28:14.189Z,1.00
2022-09-03T16:31:06.908Z,1.15
2022-09-03T16:33:52.286Z,1.40
2022-09-03T16:36:37.617Z,1.20
2022-09-03T16:39:19.167Z,1.58
2022-09-03T16:42:27.782Z,1.25
2022-09-03T16:45:33.861Z,1.52
2022-09-03T16:48:14.989Z,0.90
2022-09-03T16:50:44.766Z,1.00
2022-09-03T16:53:14.748Z,1.42
2022-09-03T16:55:49.993Z,1.40
2022-09-03T16:59:02.829Z,2.00
2022-09-03T17:01:39.738Z,1.80
2022-09-03T17:04:31.230Z,1.55
2022-09-03T17:07:35.511Z,1.48
2022-09-03T17:10:24.060Z,1.20
2022-09-03T17:13:13.996Z,0.93
2022-09-03T17:15:56.536Z,1.20
2022-09-03T17:19:01.619Z,1.00
2022-09-03T17:21:31.187Z,1.00
2022-09-03T17:24:23.362Z,1.35
2022-09-03T17:27:14.007Z,1.52
2022-09-03T17:29:51.920Z,1.67
2022-09-03T17:35:01.070Z,1.17
2022-09-03T17:37:46.484Z,1.20
2022-09-03T17:40:26.027Z,1.35
2022-09-03T17:43:18.988Z,1.10
2022-09-03T17:45:59.202Z,1.00
2022-09-03T17:48:41.313Z,1.15
2022-09-03T17:51:17.013Z,1.15
2022-09-03T17:54:03.909Z,1.13
2022-09-03T17:56:56.885Z,1.20
2022-09-03T17:59:36.411Z,1.13
2022-09-03T18:02:25.242Z,1.50
2022-09-03T18:05:08.679Z,1.40
2022-09-03T18:07:47.402Z,1.35
2022-09-03T18:10:32.054Z,1.20
2022-09-03T18:13:23.992Z,1.10
2022-09-03T18:16:09.690Z,1.38
2022-09-03T18:19:08.450Z,1.75
2022-09-03T18:21:57.347Z,1.80
2022-09-03T18:25:20.753Z,1.70
2022-09-03T18:28:26.056Z,1.50
2022-09-03T18:31:11.856Z,1.40
2022-09-03T18:33:57.287Z,1.60
2022-09-03T18:36:42.742Z,1.88
2022-09-03T18:39:36.102Z,2.95
2022-09-03T18:42:31.430Z,1.70
2022-09-03T18:45:22.637Z,1.73
2022-09-03T18:48:19.641Z,1.90
2022-09-03T18:51:38.493Z,1.90
2022-09-03T18:54:56.799Z,2.05
2022-09-03T18:58:06.383Z,4.32
2022-09-03T19:00:58.111Z,3.95
2022-09-03T19:04:21.997Z,4.10
2022-09-03T19:07:25.864Z,3.13
2022-09-03T19:10:29.346Z,2.83
2022-09-03T19:13:35.921Z,1.70
2022-09-03T19:16:24.817Z,1.10
2022-09-03T19:19:13.844Z,1.20
2022-09-03T19:22:21.205Z,1.50
2022-09-03T19:25:12.733Z,2.20
2022-09-03T19:31:17.110Z,2.15
2022-09-03T19:34:21.090Z,1.55
2022-09-03T19:37:23.464Z,1.60
2022-09-03T19:40:08.721Z,2.05
2022-09-03T19:43:11.986Z,1.40
2022-09-03T19:46:23.736Z,1.48
2022-09-03T19:49:24.145Z,1.80
2022-09-03T19:52:34.468Z,1.38
2022-09-03T19:55:21.046Z,1.25
2022-09-03T19:58:26.188Z,1.00
2022-09-03T20:01:18.163Z,1.17
2022-09-03T20:04:03.346Z,0.80
2022-09-03T20:06:52.326Z,1.20
2022-09-03T20:09:41.800Z,1.13
2022-09-03T20:12:10.115Z,0.90
2022-09-03T20:14:37.608Z,1.05
2022-09-03T20:17:16.354Z,1.17
2022-09-03T20:20:04.834Z,0.90
2022-09-03T20:22:37.105Z,1.17
2022-09-03T20:25:36.734Z,1.27
2022-09-03T20:28:06.421Z,1.30
2022-09-03T20:30:42.220Z,1.20
2022-09-03T20:33:22.923Z,1.80
2022-09-03T20:36:07.622Z,1.77
2022-09-03T20:39:02.910Z,1.65
2022-09-03T20:41:37.406Z,1.40
2022-09-03T20:44:12.374Z,1.67
2022-09-03T20:46:57.208Z,1.60
2022-09-03T20:49:31.378Z,1.65
2022-09-03T20:52:07.312Z,1.50
2022-09-03T20:54:47.491Z,1.73
2022-09-03T20:57:16.949Z,2.22
2022-09-03T20:59:55.793Z,1.85
2022-09-03T21:02:58.637Z,2.13
2022-09-03T21:05:54.192Z,2.55
2022-09-03T21:08:45.863Z,3.50
2022-09-03T21:11:28.159Z,3.63
2022-09-03T21:14:33.405Z,4.60
2022-09-03T21:17:35.837Z,3.00
2022-09-03T21:20:20.164Z,2.70
2022-09-03T21:23:13.181Z,2.10
2022-09-03T21:25:48.734Z,2.65
2022-09-03T21:28:25.916Z,2.15
2022-09-03T21:30:59.459Z,2.72
2022-09-03T21:33:29.824Z,2.20
2022-09-03T21:36:30.209Z,1.83
2022-09-03T21:39:20.904Z,1.90
2022-09-03T21:42:13.558Z,1.42
2022-09-03T21:44:40.389Z,1.50
2022-09-03T21:47:15.766Z,1.70
2022-09-03T21:50:05.686Z,1.10
2022-09-03T21:52:35.644Z,1.17
2022-09-03T21:55:31.184Z,1.35
2022-09-03T21:58:18.187Z,1.55
2022-09-03T22:00:46.225Z,1.88
2022-09-03T22:03:13.777Z,2.67
2022-09-03T22:05:55.438Z,2.05
2022-09-03T22:08:34.910Z,2.10
2022-09-03T22:11:20.517Z,2.00
2022-09-03T22:14:08.307Z,2.53
2022-09-03T22:16:46.212Z,1.90
2022-09-03T22:21:59.633Z,2.38
2022-09-03T22:24:41.714Z,2.55
2022-09-03T22:27:35.544Z,2.45
2022-09-03T22:30:07.101Z,2.33
2022-09-03T22:32:51.426Z,2.47
2022-09-03T22:35:38.968Z,2.60
2022-09-03T22:38:35.421Z,2.10
2022-09-03T22:41:20.368Z,2.40
2022-09-03T22:44:09.906Z,2.65
2022-09-03T22:46:59.749Z,2.65
2022-09-03T22:49:41.962Z,2.70
2022-09-03T22:52:22.051Z,2.47
2022-09-03T22:54:54.733Z,2.55
2022-09-03T22:57:24.296Z,3.03
2022-09-03T23:00:02.300Z,2.55
2022-09-03T23:05:14.945Z,2.65
2022-09-03T23:08:25.354Z,2.30
2022-09-03T23:11:05.697Z,2.28
2022-09-03T23:13:43.409Z,2.42
2022-09-03T23:16:47.133Z,2.20
2022-09-03T23:21:56.984Z,2.25
2022-09-03T23:24:28.809Z,1.30
2022-09-03T23:26:55.487Z,1.25
2022-09-03T23:29:52.580Z,0.80
2022-09-03T23:32:19.547Z,0.93
2022-09-03T23:34:46.217Z,0.90
2022-09-03T23:37:41.960Z,0.85
2022-09-03T23:40:48.480Z,0.98
2022-09-03T23:43:43.301Z,2.03
2022-09-03T23:46:20.700Z,1.20
2022-09-03T23:49:14.680Z,0.80
2022-09-03T23:52:19.036Z,0.75
2022-09-03T23:55:00.231Z,0.70
2022-09-03T23:57:40.653Z,0.85
